• Join FlightAware (Why Join?)
  • Login
  • US Flag 
03:33PM EDT


 

Airport Tracker/Info


-or-


 

Live Flight TrackerFlight Track Log ✈ AIP1598 ✈ 26-Feb-2014 ✈ KMSO - KBIL

Flight Track Log - Related Links

Times and Time Zones

All times are in EST time to prevent confusion due to time zone crossing. See the AIP1598 flight status page for this flight to view local times or setup timezone preferences in your user account.

Time Position Orientation Groundspeed Altitude Reporting Facility
EST Latitude Longitude Course Direction KTS MPH feet Rate Location/Type
07:58PM 46.9028 -114.0886 107° East 133 153 7,200  Level Salt Lake Center
07:59PM 46.8936 -114.0294 103° East 151 174 9,700 2,520 Climbing Salt Lake Center
08:00PM 46.8828 -113.9614 103° East 159 183 12,400 2,580 Climbing Salt Lake Center
08:01PM 46.8717 -113.8944 104° East 169 194 15,000 2,520 Climbing Salt Lake Center
08:02PM 46.8556 -113.8247 109° East 179 206 17,600 2,340 Climbing Salt Lake Center
08:03PM 46.8157 -113.5147 107° East  Level Estimated
08:03PM 46.8392 -113.7464 107° East 186 214 19,900  Level Salt Lake Center
08:04PM 46.8258 -113.6675 104° East 198 228 20,900 480 Climbing Salt Lake Center
08:05PM 46.8069 -113.5592 104° East 270 311 20,900  Level Salt Lake Center
08:06PM 46.7883 -113.4406 103° East 296 341 20,900 -60 Level Salt Lake Center
08:08PM 46.7606 -113.1961 99° East 306 352 20,800 -60 Descending Salt Lake Center
08:09PM 46.7406 -113.0750 104° East 308 354 20,800  Level Salt Lake Center
08:10PM 46.7242 -112.9567 101° East 298 343 20,900  Climbing Salt Lake Center
08:11PM 46.6950 -112.8233 108° East 303 349 20,900  Level Salt Lake Center
08:12PM 46.6703 -112.7117 108° East 293 337 20,900  Level Salt Lake Center
08:13PM 46.6489 -112.5961 105° East 296 341 21,000  Climbing Salt Lake Center
08:14PM 46.6278 -112.4819 105° East 293 337 21,000 -60 Level Salt Lake Center
08:15PM 46.6064 -112.3667 105° East 295 339 20,900  Descending Salt Lake Center
08:16PM 46.5839 -112.2289 103° East 294 338 21,000  Climbing Salt Lake Center
08:17PM 46.5639 -112.1131 104° East 295 339 21,000  Level Salt Lake Center
08:18PM 46.5397 -112.0000 107° East 295 339 21,000  Level Salt Lake Center
08:19PM 46.5186 -111.8839 105° East 299 344 21,000  Level Salt Lake Center
08:20PM 46.4939 -111.7708 108° East 297 342 21,000  Level Salt Lake Center
08:21PM 46.4714 -111.6578 106° East 294 338 21,000  Level Salt Lake Center
08:22PM 46.4439 -111.5189 106° East 300 345 21,000  Level Salt Lake Center
08:23PM 46.4219 -111.4014 105° East 293 337 21,000  Level Salt Lake Center
08:24PM 46.3986 -111.2836 106° East 298 343 21,000  Level Salt Lake Center
08:25PM 46.3744 -111.1661 107° East 298 343 21,000 -60 Level Salt Lake Center
08:26PM 46.3511 -111.0486 106° East 298 343 20,900  Descending Salt Lake Center
08:27PM 46.3325 -110.9400 104° East 298 343 21,000 60 Climbing Salt Lake Center
08:28PM 46.3053 -110.8275 109° East 298 343 21,100  Climbing Salt Lake Center
08:29PM 46.2836 -110.7106 105° East 300 345 21,100 -60 Level Salt Lake Center
08:30PM 46.2519 -110.5753 109° East 299 344 21,000  Descending Salt Lake Center
08:31PM 46.2294 -110.4589 106° East 300 345 21,100 -60 Climbing Salt Lake Center
08:32PM 46.2019 -110.3461 109° East 300 345 20,900 -60 Descending Salt Lake Center
08:33PM 46.1794 -110.2297 106° East 301 346 21,000  Climbing Salt Lake Center
08:35PM 46.1542 -110.1153 108° East 301 346 21,000  Level Salt Lake Center
08:36PM 46.1258 -110.0031 110° East 300 345 21,000 -360 Level Salt Lake Center
08:37PM 46.0994 -109.8867 108° East 303 349 20,300 -720 Descending Salt Lake Center
08:38PM 46.0683 -109.7436 107° East 318 366 19,600 -900 Descending Salt Lake Center
08:39PM 46.0467 -109.6161 104° East 311 358 18,500 -960 Descending Salt Lake Center
08:40PM 46.0464 -109.4964 90° East 301 346 17,700 -840 Descending Salt Lake Center
08:41PM 46.0503 -109.3744 87° East 305 351 16,800 -960 Descending Salt Lake Center
08:42PM 46.0622 -109.2478 82° East 302 348 15,800 -780 Descending Salt Lake Center
08:43PM 46.0850 -109.1369 73° East 298 343 15,300 -660 Descending Salt Lake Center
08:44PM 46.0617 -109.0136 105° East 299 344 14,500 -900 Descending Salt Lake Center
08:45PM 46.0256 -108.9078 116° Southeast 300 345 13,500 -1,200 Descending Salt Lake Center
08:46PM 45.9756 -108.8022 124° Southeast 300 345 12,100 -1,380 Descending Salt Lake Center
08:47PM 45.9314 -108.7014 122° Southeast 300 345 10,700 -1,800 Descending Salt Lake Center
08:48PM 45.8903 -108.6056 122° Southeast 287 330 8,500 -2,280 Descending Salt Lake Center
08:49PM 45.8525 -108.5094 119° Southeast 261 300 6,100 -1,860 Descending Salt Lake Center
08:50PM 45.8117 -108.4789 152° Southeast 168 193 4,700 -1,320 Descending Salt Lake Center
08:51PM 45.8022 -108.5181 251° West 122 140 3,500 -1,200 Descending Salt Lake Center
08:53PM 45.8000 -108.5333 270° West  Level FlightAware Approximate